createdAt,value
2024-01-06T00:00:18.266Z,98440.78
2024-01-06T00:02:45.822Z,98436.88
2024-01-06T00:05:13.043Z,98441.56
2024-01-06T00:07:40.075Z,98443.16
2024-01-06T00:10:08.087Z,98434.34
2024-01-06T00:12:35.124Z,98443.34
2024-01-06T00:15:02.150Z,98435.41
2024-01-06T00:17:29.267Z,98446.91
2024-01-06T00:19:56.650Z,98439.22
2024-01-06T00:22:23.703Z,98440.34
2024-01-06T00:24:50.668Z,98433.50
2024-01-06T00:27:17.758Z,98437.53
2024-01-06T00:29:44.699Z,98436.03
2024-01-06T00:32:11.674Z,98444.63
2024-01-06T00:34:38.747Z,98446.53
2024-01-06T00:37:05.958Z,98439.56
2024-01-06T00:39:32.960Z,98436.66
2024-01-06T00:42:00.037Z,98444.38
2024-01-06T00:44:27.103Z,98446.78
2024-01-06T00:46:54.024Z,98442.25
2024-01-06T00:49:21.068Z,98443.28
2024-01-06T00:51:48.142Z,98444.38
2024-01-06T00:54:15.347Z,98445.03
2024-01-06T00:56:43.967Z,98455.41
2024-01-06T00:59:11.258Z,98461.00
2024-01-06T01:01:38.317Z,98464.66
2024-01-06T01:04:06.573Z,98469.03
2024-01-06T01:06:33.705Z,98465.94
2024-01-06T01:09:00.692Z,98476.56
2024-01-06T01:11:27.679Z,98479.72
2024-01-06T01:13:54.657Z,98482.34
2024-01-06T01:16:21.634Z,98485.66
2024-01-06T01:18:48.764Z,98478.03
2024-01-06T01:21:16.603Z,98483.56
2024-01-06T01:23:44.026Z,98481.50
2024-01-06T01:26:10.884Z,98494.41
2024-01-06T01:28:37.755Z,98493.53
2024-01-06T01:31:04.903Z,98496.00
2024-01-06T01:33:32.494Z,98502.00
2024-01-06T01:36:02.579Z,98499.66
2024-01-06T01:38:29.892Z,98501.25
2024-01-06T01:40:56.735Z,98503.78
2024-01-06T01:43:24.664Z,98510.34
2024-01-06T01:45:57.701Z,98515.66
2024-01-06T01:48:26.460Z,98520.16
2024-01-06T01:50:54.803Z,98521.88
2024-01-06T01:53:22.706Z,98519.66
2024-01-06T01:55:50.521Z,98526.53
2024-01-06T01:58:17.965Z,98528.19
2024-01-06T02:00:44.948Z,98531.09
2024-01-06T02:03:14.324Z,98538.81
2024-01-06T02:05:41.316Z,98538.34
2024-01-06T02:08:08.357Z,98532.22
2024-01-06T02:10:35.538Z,98522.53
2024-01-06T02:13:10.513Z,98518.97
2024-01-06T02:15:37.489Z,98519.09
2024-01-06T02:18:04.989Z,98526.91
2024-01-06T02:20:32.517Z,98524.09
2024-01-06T02:23:01.877Z,98528.53
2024-01-06T02:25:30.698Z,98529.66
2024-01-06T02:27:57.978Z,98526.91
2024-01-06T02:30:25.168Z,98532.72
2024-01-06T02:32:52.308Z,98530.94
2024-01-06T02:35:20.276Z,98534.59
2024-01-06T02:37:47.078Z,98538.72
2024-01-06T02:40:15.154Z,98534.97
2024-01-06T02:42:42.486Z,98533.78
2024-01-06T02:45:11.157Z,98536.63
2024-01-06T02:47:38.226Z,98535.88
2024-01-06T02:50:06.253Z,98543.56
2024-01-06T02:52:33.026Z,98541.19
2024-01-06T02:55:00.375Z,98541.19
2024-01-06T02:57:27.324Z,98546.59
2024-01-06T02:59:54.326Z,98543.22
2024-01-06T03:02:21.408Z,98550.63
2024-01-06T03:04:48.397Z,98548.53
2024-01-06T03:07:15.206Z,98544.84
2024-01-06T03:09:42.215Z,98542.38
2024-01-06T03:12:09.620Z,98544.34
2024-01-06T03:14:36.966Z,98544.41
2024-01-06T03:17:04.585Z,98544.44
2024-01-06T03:19:34.572Z,98544.44
2024-01-06T03:22:01.444Z,98545.91
2024-01-06T03:24:28.728Z,98548.38
2024-01-06T03:26:55.856Z,98544.59
2024-01-06T03:29:23.161Z,98546.97
2024-01-06T03:31:50.197Z,98554.94
2024-01-06T03:34:17.351Z,98554.75
2024-01-06T03:36:44.323Z,98551.34
2024-01-06T03:39:11.968Z,98552.38
2024-01-06T03:41:39.159Z,98558.88
2024-01-06T03:44:06.228Z,98559.19
2024-01-06T03:46:34.745Z,98564.47
2024-01-06T03:49:01.938Z,98559.78
2024-01-06T03:51:31.840Z,98561.44
2024-01-06T03:53:59.103Z,98560.59
2024-01-06T03:56:26.026Z,98561.34
2024-01-06T03:58:53.181Z,98569.69
2024-01-06T04:01:20.069Z,98567.75
2024-01-06T04:03:47.247Z,98562.91
2024-01-06T04:06:14.477Z,98564.00
2024-01-06T04:08:42.962Z,98569.41
2024-01-06T04:11:09.950Z,98561.94
2024-01-06T04:13:36.871Z,98561.75
2024-01-06T04:16:04.054Z,98566.84
2024-01-06T04:18:31.200Z,98569.53
2024-01-06T04:20:58.244Z,98564.13
2024-01-06T04:23:26.332Z,98569.44
2024-01-06T04:25:53.992Z,98560.81
2024-01-06T04:28:20.972Z,98571.34
2024-01-06T04:30:48.196Z,98570.50
2024-01-06T04:33:15.557Z,98569.41
2024-01-06T04:35:42.600Z,98579.31
2024-01-06T04:38:10.360Z,98580.72
2024-01-06T04:40:37.457Z,98578.50
2024-01-06T04:43:04.944Z,98572.56
2024-01-06T04:45:32.011Z,98572.66
2024-01-06T04:50:25.996Z,98571.09
2024-01-06T04:52:53.073Z,98568.88
2024-01-06T04:55:20.056Z,98565.97
2024-01-06T04:57:47.223Z,98570.84
2024-01-06T05:00:14.683Z,98571.28
2024-01-06T05:02:42.890Z,98566.94
2024-01-06T05:05:10.040Z,98569.09
2024-01-06T05:07:36.953Z,98569.16
2024-01-06T05:10:03.980Z,98567.00
2024-01-06T05:12:31.080Z,98565.06
2024-01-06T05:14:58.054Z,98567.28
2024-01-06T05:17:25.135Z,98577.09
2024-01-06T05:19:52.092Z,98569.38
2024-01-06T05:22:19.436Z,98577.38
2024-01-06T05:24:46.507Z,98564.94
2024-01-06T05:27:14.291Z,98581.66
2024-01-06T05:29:41.332Z,98574.38
2024-01-06T05:32:08.581Z,98578.34
2024-01-06T05:34:36.184Z,98583.25
2024-01-06T05:37:03.280Z,98589.34
2024-01-06T05:39:30.269Z,98585.94
2024-01-06T05:41:57.406Z,98591.91
2024-01-06T05:44:24.410Z,98595.13
2024-01-06T05:46:52.501Z,98598.50
2024-01-06T05:49:20.204Z,98600.97
2024-01-06T05:51:47.701Z,98608.97
2024-01-06T05:54:15.254Z,98616.56
2024-01-06T05:56:42.277Z,98612.34
2024-01-06T05:59:09.238Z,98626.44
2024-01-06T06:01:36.220Z,98629.44
2024-01-06T06:04:03.873Z,98623.13
2024-01-06T06:06:31.782Z,98640.56
2024-01-06T06:08:59.028Z,98631.94
2024-01-06T06:11:25.931Z,98648.91
2024-01-06T06:13:53.070Z,98642.56
2024-01-06T06:16:20.458Z,98642.00
2024-01-06T06:18:47.648Z,98649.28
2024-01-06T06:21:14.717Z,98653.94
2024-01-06T06:23:41.764Z,98650.91
2024-01-06T06:26:09.754Z,98668.34
2024-01-06T06:28:36.834Z,98662.19
2024-01-06T06:31:04.404Z,98668.50
2024-01-06T06:33:32.008Z,98672.03
2024-01-06T06:35:59.353Z,98667.88
2024-01-06T06:38:29.151Z,98672.56
2024-01-06T06:40:56.252Z,98671.56
2024-01-06T06:43:23.398Z,98673.19
2024-01-06T06:45:50.401Z,98678.91
2024-01-06T06:48:17.792Z,98677.38
2024-01-06T06:50:45.123Z,98680.47
2024-01-06T06:53:12.066Z,98685.94
2024-01-06T06:55:39.079Z,98693.47
2024-01-06T06:58:07.305Z,98697.41
2024-01-06T07:00:34.510Z,98707.28
2024-01-06T07:03:01.996Z,98706.91
2024-01-06T07:05:28.992Z,98711.50
2024-01-06T07:07:56.403Z,98703.25
2024-01-06T07:10:24.066Z,98709.53
2024-01-06T07:12:51.065Z,98710.19
2024-01-06T07:15:18.061Z,98703.97
2024-01-06T07:17:45.189Z,98705.03
2024-01-06T07:20:12.886Z,98704.25
2024-01-06T07:22:40.051Z,98698.63
2024-01-06T07:25:08.008Z,98709.59
2024-01-06T07:27:35.054Z,98713.91
2024-01-06T07:30:02.023Z,98721.88
2024-01-06T07:32:28.884Z,98719.81
2024-01-06T07:34:55.924Z,98725.53
2024-01-06T07:37:22.823Z,98725.81
2024-01-06T07:39:49.871Z,98736.22
2024-01-06T07:42:16.868Z,98731.53
2024-01-06T07:44:43.831Z,98736.38
2024-01-06T07:47:10.715Z,98747.00
2024-01-06T07:49:37.933Z,98750.25
2024-01-06T07:52:05.103Z,98750.69
2024-01-06T07:54:31.980Z,98756.41
2024-01-06T07:56:58.890Z,98754.00
2024-01-06T07:59:26.099Z,98761.53
2024-01-06T08:01:53.010Z,98759.13
2024-01-06T08:04:19.960Z,98763.13
2024-01-06T08:06:47.004Z,98777.72
2024-01-06T08:09:14.507Z,98786.47
2024-01-06T08:11:41.368Z,98784.19
2024-01-06T08:14:08.268Z,98784.44
2024-01-06T08:16:35.148Z,98783.75
2024-01-06T08:19:02.093Z,98779.63
2024-01-06T08:21:29.330Z,98782.66
2024-01-06T08:23:57.222Z,98786.06
2024-01-06T08:26:24.187Z,98785.50
2024-01-06T08:28:51.210Z,98784.13
2024-01-06T08:31:18.116Z,98789.97
2024-01-06T08:33:45.267Z,98785.88
2024-01-06T08:36:12.969Z,98794.31
2024-01-06T08:38:39.780Z,98801.31
2024-01-06T08:41:06.615Z,98801.53
2024-01-06T08:43:33.505Z,98803.25
2024-01-06T08:46:00.863Z,98800.56
2024-01-06T08:48:28.708Z,98806.00
2024-01-06T08:50:56.373Z,98803.19
2024-01-06T08:53:23.627Z,98813.00
2024-01-06T08:55:50.436Z,98809.91
2024-01-06T08:58:17.221Z,98815.03
2024-01-06T09:00:44.127Z,98823.63
2024-01-06T09:03:11.308Z,98824.00
2024-01-06T09:05:38.135Z,98826.69
2024-01-06T09:08:05.380Z,98822.81
2024-01-06T09:10:32.256Z,98832.59
2024-01-06T09:12:59.226Z,98828.44
2024-01-06T09:15:26.310Z,98825.53
2024-01-06T09:17:53.223Z,98831.88
2024-01-06T09:20:24.334Z,98834.38
2024-01-06T09:22:51.647Z,98837.00
2024-01-06T09:25:18.562Z,98840.75
2024-01-06T09:27:45.581Z,98842.63
2024-01-06T09:30:12.925Z,98843.19
2024-01-06T09:32:39.929Z,98844.56
2024-01-06T09:35:07.361Z,98837.50
2024-01-06T09:37:34.169Z,98839.56
2024-01-06T09:40:01.142Z,98848.50
2024-01-06T09:42:28.170Z,98846.81
2024-01-06T09:44:55.123Z,98849.25
2024-01-06T09:47:23.907Z,98844.31
2024-01-06T09:49:52.106Z,98840.19
2024-01-06T09:52:23.603Z,98848.50
2024-01-06T09:54:55.557Z,98847.69
2024-01-06T09:57:24.727Z,98846.81
2024-01-06T09:59:52.965Z,98849.84
2024-01-06T10:02:24.370Z,98845.09
2024-01-06T10:04:51.428Z,98845.81
2024-01-06T10:07:18.596Z,98848.38
2024-01-06T10:09:45.628Z,98848.78
2024-01-06T10:12:12.675Z,98847.94
2024-01-06T10:14:41.241Z,98847.75
2024-01-06T10:17:11.802Z,98850.53
2024-01-06T10:19:40.021Z,98837.50
2024-01-06T10:22:06.980Z,98842.66
2024-01-06T10:24:34.033Z,98854.28
2024-01-06T10:27:00.837Z,98861.34
2024-01-06T10:29:28.549Z,98860.38
2024-01-06T10:31:56.676Z,98856.88
2024-01-06T10:34:24.932Z,98854.50
2024-01-06T10:36:55.745Z,98862.66
2024-01-06T10:39:23.436Z,98856.00
2024-01-06T10:41:51.046Z,98857.53
2024-01-06T10:44:18.604Z,98857.94
2024-01-06T10:46:45.977Z,98868.22
2024-01-06T10:49:15.134Z,98865.19
2024-01-06T10:51:42.567Z,98869.28
2024-01-06T10:54:10.919Z,98854.41
2024-01-06T10:56:40.159Z,98854.47
2024-01-06T10:59:09.365Z,98857.34
2024-01-06T11:01:37.639Z,98856.94
2024-01-06T11:04:08.018Z,98858.16
2024-01-06T11:06:37.366Z,98848.69
2024-01-06T11:09:20.420Z,98850.31
2024-01-06T11:11:47.667Z,98859.44
2024-01-06T11:14:23.344Z,98852.00
2024-01-06T11:16:50.506Z,98855.09
2024-01-06T11:19:35.803Z,98851.16
2024-01-06T11:22:21.964Z,98859.81
2024-01-06T11:24:50.947Z,98851.16
2024-01-06T11:27:36.698Z,98846.19
2024-01-06T11:30:08.688Z,98846.78
2024-01-06T11:32:41.102Z,98848.06
2024-01-06T11:35:12.308Z,98837.53
2024-01-06T11:37:41.869Z,98841.56
2024-01-06T11:40:26.771Z,98832.97
2024-01-06T11:43:04.006Z,98833.28
2024-01-06T11:45:31.530Z,98831.13
2024-01-06T11:48:00.631Z,98835.63
2024-01-06T11:50:28.358Z,98826.97
2024-01-06T11:52:56.607Z,98832.03
2024-01-06T11:55:24.245Z,98828.50
2024-01-06T11:57:51.906Z,98823.06
2024-01-06T12:00:19.489Z,98824.38
2024-01-06T12:02:46.521Z,98824.75
2024-01-06T12:05:19.376Z,98819.75
2024-01-06T12:08:02.400Z,98821.84
2024-01-06T12:10:30.613Z,98817.38
2024-01-06T12:13:04.690Z,98823.50
2024-01-06T12:15:34.200Z,98819.59
2024-01-06T12:18:05.093Z,98814.03
2024-01-06T12:20:32.718Z,98813.41
2024-01-06T12:23:01.757Z,98815.13
2024-01-06T12:25:30.639Z,98818.56
2024-01-06T12:27:57.663Z,98823.84
2024-01-06T12:30:25.913Z,98818.81
2024-01-06T12:32:56.066Z,98818.22
2024-01-06T12:35:24.317Z,98810.38
2024-01-06T12:37:52.922Z,98814.94
2024-01-06T12:40:21.365Z,98815.88
2024-01-06T12:42:48.573Z,98816.22
2024-01-06T12:45:18.217Z,98808.03
2024-01-06T12:47:45.579Z,98803.53
2024-01-06T12:50:12.706Z,98812.44
2024-01-06T12:52:40.759Z,98808.13
2024-01-06T12:55:09.310Z,98808.13
2024-01-06T12:57:36.866Z,98818.94
2024-01-06T13:00:04.790Z,98820.28
2024-01-06T13:02:31.689Z,98821.22
2024-01-06T13:04:59.292Z,98822.59
2024-01-06T13:07:26.875Z,98809.59
2024-01-06T13:09:53.867Z,98819.97
2024-01-06T13:12:21.294Z,98826.28
2024-01-06T13:14:48.826Z,98816.53
2024-01-06T13:17:16.123Z,98815.16
2024-01-06T13:19:43.185Z,98822.56
2024-01-06T13:22:10.326Z,98828.66
2024-01-06T13:24:37.232Z,98821.03
2024-01-06T13:27:04.638Z,98829.56
2024-01-06T13:29:31.408Z,98825.03
2024-01-06T13:31:59.053Z,98826.03
2024-01-06T13:34:26.893Z,98829.53
2024-01-06T13:36:57.190Z,98829.06
2024-01-06T13:39:25.042Z,98834.69
2024-01-06T13:41:52.238Z,98833.88
2024-01-06T13:44:19.183Z,98840.69
2024-01-06T13:46:46.441Z,98834.28
2024-01-06T13:49:13.805Z,98838.69
2024-01-06T13:51:41.787Z,98838.28
2024-01-06T13:54:09.533Z,98842.66
2024-01-06T13:56:36.751Z,98842.66
2024-01-06T13:59:04.131Z,98843.28
2024-01-06T14:01:31.987Z,98858.16
2024-01-06T14:03:59.420Z,98859.00
2024-01-06T14:06:32.370Z,98856.69
2024-01-06T14:09:00.016Z,98860.63
2024-01-06T14:11:32.205Z,98857.34
2024-01-06T14:13:59.601Z,98864.78
2024-01-06T14:16:29.323Z,98863.75
2024-01-06T14:18:56.877Z,98862.53
2024-01-06T14:21:24.159Z,98868.06
2024-01-06T14:23:50.986Z,98874.22
2024-01-06T14:26:25.205Z,98862.72
2024-01-06T14:28:52.155Z,98866.81
2024-01-06T14:31:19.822Z,98873.66
2024-01-06T14:33:47.055Z,98881.25
2024-01-06T14:36:14.450Z,98884.13
2024-01-06T14:38:41.894Z,98882.09
2024-01-06T14:41:08.686Z,98885.16
2024-01-06T14:43:35.467Z,98895.25
2024-01-06T14:46:02.543Z,98889.50
2024-01-06T14:48:29.687Z,98898.13
2024-01-06T14:50:56.696Z,98896.69
2024-01-06T14:53:23.673Z,98909.25
2024-01-06T14:55:50.508Z,98895.25
2024-01-06T14:58:17.374Z,98898.97
2024-01-06T15:00:44.185Z,98898.34
2024-01-06T15:03:11.000Z,98906.34
2024-01-06T15:05:37.857Z,98901.97
2024-01-06T15:08:04.973Z,98919.53
2024-01-06T15:10:31.768Z,98916.69
2024-01-06T15:12:58.738Z,98917.06
2024-01-06T15:15:25.558Z,98922.34
2024-01-06T15:17:52.538Z,98919.06
2024-01-06T15:20:19.496Z,98925.69
2024-01-06T15:22:46.308Z,98929.34
2024-01-06T15:25:13.210Z,98940.00
2024-01-06T15:27:40.205Z,98936.66
2024-01-06T15:30:10.961Z,98934.44
2024-01-06T15:32:39.018Z,98942.22
2024-01-06T15:35:07.088Z,98942.44
2024-01-06T15:37:33.995Z,98949.41
2024-01-06T15:40:00.962Z,98949.81
2024-01-06T15:42:28.137Z,98941.38
2024-01-06T15:44:54.955Z,98951.50
2024-01-06T15:47:22.093Z,98946.16
2024-01-06T15:49:49.084Z,98946.16
2024-01-06T15:52:16.067Z,98945.75
2024-01-06T15:54:42.983Z,98955.59
2024-01-06T15:57:11.160Z,98952.28
2024-01-06T15:59:37.985Z,98945.75
2024-01-06T16:02:04.941Z,98959.16
2024-01-06T16:04:32.379Z,98954.25
2024-01-06T16:06:59.402Z,98957.59
2024-01-06T16:09:27.254Z,98955.03
2024-01-06T16:11:57.058Z,98950.91
2024-01-06T16:14:26.581Z,98959.50
2024-01-06T16:16:54.188Z,98959.13
2024-01-06T16:19:21.701Z,98963.69
2024-01-06T16:21:49.643Z,98969.81
2024-01-06T16:24:19.762Z,98963.81
2024-01-06T16:26:46.894Z,98966.88
2024-01-06T16:29:13.786Z,98962.34
2024-01-06T16:31:40.619Z,98959.78
2024-01-06T16:34:07.553Z,98964.47
2024-01-06T16:36:35.374Z,98968.97
2024-01-06T16:39:02.587Z,98968.09
2024-01-06T16:41:30.792Z,98961.06
2024-01-06T16:43:57.653Z,98963.88
2024-01-06T16:46:24.508Z,98966.28
2024-01-06T16:48:51.461Z,98967.63
2024-01-06T16:51:18.418Z,98972.53
2024-01-06T16:53:45.438Z,98969.78
2024-01-06T16:56:12.326Z,98974.75
2024-01-06T16:58:39.983Z,98966.66
2024-01-06T17:01:07.380Z,98977.28
2024-01-06T17:03:34.327Z,98977.47
2024-01-06T17:06:01.150Z,98966.78
2024-01-06T17:08:28.083Z,98969.91
2024-01-06T17:10:54.863Z,98972.56
2024-01-06T17:13:23.199Z,98977.81
2024-01-06T17:15:50.091Z,98975.72
2024-01-06T17:18:17.349Z,98976.94
2024-01-06T17:20:44.465Z,98981.88
2024-01-06T17:23:11.322Z,98985.34
2024-01-06T17:25:38.864Z,98989.63
2024-01-06T17:28:06.310Z,98991.13
2024-01-06T17:30:33.432Z,98989.50
2024-01-06T17:33:00.629Z,98995.31
2024-01-06T17:35:27.834Z,98989.31
2024-01-06T17:37:54.778Z,98984.28
2024-01-06T17:40:21.693Z,98986.47
2024-01-06T17:42:49.035Z,98994.41
2024-01-06T17:45:16.176Z,98988.13
2024-01-06T17:47:44.573Z,98983.00
2024-01-06T17:50:11.849Z,98986.94
2024-01-06T17:52:38.862Z,98989.75
2024-01-06T17:55:07.876Z,99003.31
2024-01-06T17:57:36.274Z,98999.28
2024-01-06T18:00:04.801Z,99012.25
2024-01-06T18:02:31.632Z,99015.94
2024-01-06T18:04:59.361Z,99009.84
2024-01-06T18:07:26.805Z,99012.25
2024-01-06T18:09:53.802Z,99016.31
2024-01-06T18:12:20.746Z,99020.91
2024-01-06T18:14:47.544Z,99025.84
2024-01-06T18:17:14.419Z,99024.84
2024-01-06T18:19:41.267Z,99026.97
2024-01-06T18:22:08.647Z,99031.31
2024-01-06T18:24:37.637Z,99036.38
2024-01-06T18:27:05.755Z,99027.97
2024-01-06T18:29:35.243Z,99038.50
2024-01-06T18:32:02.381Z,99040.31
2024-01-06T18:34:29.318Z,99038.41
2024-01-06T18:36:56.358Z,99035.88
2024-01-06T18:39:23.220Z,99041.16
2024-01-06T18:41:50.189Z,99040.97
2024-01-06T18:44:17.218Z,99039.69
2024-01-06T18:46:44.074Z,99036.19
2024-01-06T18:49:11.006Z,99044.47
2024-01-06T18:51:38.686Z,99040.66
2024-01-06T18:54:12.556Z,99038.94
2024-01-06T18:56:43.211Z,99038.94
2024-01-06T18:59:10.122Z,99048.59
2024-01-06T19:01:37.324Z,99046.44
2024-01-06T19:04:04.360Z,99045.63
2024-01-06T19:06:31.954Z,99039.75
2024-01-06T19:08:58.833Z,99041.97
2024-01-06T19:11:25.712Z,99048.47
2024-01-06T19:13:52.572Z,99041.88
2024-01-06T19:16:19.776Z,99044.91
2024-01-06T19:18:46.914Z,99050.63
2024-01-06T19:21:15.179Z,99052.91
2024-01-06T19:23:42.215Z,99051.38
2024-01-06T19:26:09.139Z,99047.59
2024-01-06T19:28:36.425Z,99044.66
2024-01-06T19:31:03.566Z,99048.72
2024-01-06T19:33:30.721Z,99046.94
2024-01-06T19:35:57.820Z,99049.16
2024-01-06T19:38:25.121Z,99056.47
2024-01-06T19:40:52.061Z,99054.69
2024-01-06T19:43:19.542Z,99062.84
2024-01-06T19:45:46.455Z,99062.69
2024-01-06T19:48:13.442Z,99055.06
2024-01-06T19:50:40.354Z,99052.56
2024-01-06T19:53:07.168Z,99051.88
2024-01-06T19:55:34.140Z,99051.94
2024-01-06T19:58:01.059Z,99052.75
2024-01-06T20:00:30.576Z,99048.13
2024-01-06T20:02:59.000Z,99051.63
2024-01-06T20:05:28.566Z,99051.00
2024-01-06T20:07:55.451Z,99058.56
2024-01-06T20:10:22.373Z,99052.91
2024-01-06T20:12:49.310Z,99062.47
2024-01-06T20:15:16.291Z,99055.69
2024-01-06T20:17:43.213Z,99055.78
2024-01-06T20:20:16.127Z,99056.69
2024-01-06T20:22:43.085Z,99052.16
2024-01-06T20:25:10.197Z,99047.66
2024-01-06T20:27:37.212Z,99050.25
2024-01-06T20:30:04.764Z,99043.78
2024-01-06T20:32:32.577Z,99051.81
2024-01-06T20:35:01.112Z,99054.03
2024-01-06T20:37:28.195Z,99050.44
2024-01-06T20:39:58.248Z,99047.59
2024-01-06T20:42:25.317Z,99049.13
2024-01-06T20:44:52.314Z,99054.31
2024-01-06T20:47:19.123Z,99053.22
2024-01-06T20:49:46.015Z,99055.69
2024-01-06T20:52:13.061Z,99056.06
2024-01-06T20:54:40.219Z,99057.28
2024-01-06T20:57:08.899Z,99060.56
2024-01-06T20:59:35.864Z,99055.88
2024-01-06T21:02:03.467Z,99059.75
2024-01-06T21:04:30.329Z,99050.88
2024-01-06T21:06:57.187Z,99052.00
2024-01-06T21:09:27.336Z,99045.91
2024-01-06T21:11:55.777Z,99046.94
2024-01-06T21:14:23.092Z,99045.03
2024-01-06T21:16:51.986Z,99045.78
2024-01-06T21:19:20.002Z,99051.28
2024-01-06T21:21:47.178Z,99046.16
2024-01-06T21:24:14.282Z,99052.25
2024-01-06T21:26:41.115Z,99057.44
2024-01-06T21:29:08.034Z,99054.97
2024-01-06T21:31:35.097Z,99058.91
2024-01-06T21:34:02.110Z,99054.19
2024-01-06T21:36:29.971Z,99062.59
2024-01-06T21:38:57.629Z,99062.16
2024-01-06T21:41:25.331Z,99063.31
2024-01-06T21:43:52.841Z,99063.75
2024-01-06T21:46:20.434Z,99060.53
2024-01-06T21:48:48.230Z,99063.44
2024-01-06T21:51:17.426Z,99066.97
2024-01-06T21:53:44.525Z,99076.09
2024-01-06T21:56:11.473Z,99070.03
2024-01-06T21:58:38.362Z,99068.78
2024-01-06T22:01:05.353Z,99077.88
2024-01-06T22:03:32.481Z,99082.25
2024-01-06T22:05:59.433Z,99077.88
2024-01-06T22:08:26.454Z,99078.31
2024-01-06T22:10:53.316Z,99082.28
2024-01-06T22:13:20.282Z,99086.38
2024-01-06T22:15:47.550Z,99084.28
2024-01-06T22:18:14.715Z,99093.78
2024-01-06T22:20:41.909Z,99090.47
2024-01-06T22:23:08.907Z,99089.09
2024-01-06T22:25:35.881Z,99085.94
2024-01-06T22:28:03.409Z,99082.47
2024-01-06T22:30:30.647Z,99086.28
2024-01-06T22:32:57.599Z,99084.91
2024-01-06T22:35:24.471Z,99081.56
2024-01-06T22:37:51.298Z,99089.75
2024-01-06T22:40:21.629Z,99087.41
2024-01-06T22:42:49.025Z,99082.06
2024-01-06T22:45:16.021Z,99086.66
2024-01-06T22:47:43.074Z,99096.91
2024-01-06T22:50:10.112Z,99091.25
2024-01-06T22:52:36.970Z,99097.25
2024-01-06T22:55:04.427Z,99092.09
2024-01-06T22:57:31.393Z,99090.56
2024-01-06T22:59:58.534Z,99090.66
2024-01-06T23:02:25.558Z,99095.41
2024-01-06T23:04:54.786Z,99093.69
2024-01-06T23:07:21.665Z,99092.47
2024-01-06T23:09:48.704Z,99093.75
2024-01-06T23:12:15.721Z,99091.31
2024-01-06T23:14:42.661Z,99092.69
2024-01-06T23:17:10.076Z,99099.13
2024-01-06T23:19:37.109Z,99096.59
2024-01-06T23:22:04.732Z,99108.28
2024-01-06T23:24:34.062Z,99106.63
2024-01-06T23:27:01.012Z,99109.34
2024-01-06T23:29:27.857Z,99113.44
2024-01-06T23:31:54.805Z,99114.91
2024-01-06T23:34:30.052Z,99117.03
2024-01-06T23:37:01.882Z,99115.91
2024-01-06T23:39:28.803Z,99117.66
2024-01-06T23:41:55.698Z,99116.84
2024-01-06T23:44:22.630Z,99114.44
2024-01-06T23:46:51.742Z,99120.59
2024-01-06T23:49:18.840Z,99127.78
2024-01-06T23:51:45.773Z,99131.09
2024-01-06T23:54:12.692Z,99125.13
2024-01-06T23:56:39.523Z,99123.47
2024-01-06T23:59:06.373Z,99126.41
